createdAt,value
2022-09-11T00:01:16.487Z,29.92
2022-09-11T00:03:45.200Z,28.55
2022-09-11T00:06:14.773Z,26.25
2022-09-11T00:08:42.637Z,27.83
2022-09-11T00:11:17.450Z,31.98
2022-09-11T00:13:50.113Z,30.25
2022-09-11T00:16:44.811Z,31.58
2022-09-11T00:19:19.956Z,30.95
2022-09-11T00:21:47.911Z,34.83
2022-09-11T00:24:14.862Z,29.00
2022-09-11T00:26:42.603Z,32.17
2022-09-11T00:29:10.101Z,32.45
2022-09-11T00:31:38.572Z,27.42
2022-09-11T00:34:06.862Z,28.00
2022-09-11T00:36:36.216Z,31.73
2022-09-11T00:39:03.909Z,36.78
2022-09-11T00:41:38.102Z,31.63
2022-09-11T00:44:28.297Z,27.77
2022-09-11T00:46:58.292Z,28.10
2022-09-11T00:49:32.934Z,26.15
2022-09-11T00:52:22.469Z,27.20
2022-09-11T00:54:56.523Z,28.65
2022-09-11T00:57:27.098Z,31.52
2022-09-11T00:59:58.412Z,35.58
2022-09-11T01:02:28.359Z,30.88
2022-09-11T01:04:56.796Z,33.22
2022-09-11T01:07:25.940Z,32.00
2022-09-11T01:09:53.792Z,33.15
2022-09-11T01:12:28.725Z,29.77
2022-09-11T01:15:05.910Z,29.50
2022-09-11T01:17:39.130Z,28.50
2022-09-11T01:20:30.066Z,26.83
2022-09-11T01:23:32.825Z,29.73
2022-09-11T01:26:18.918Z,31.98
2022-09-11T01:29:10.619Z,29.15
2022-09-11T01:31:46.909Z,29.23
2022-09-11T01:34:36.024Z,36.83
2022-09-11T01:37:08.522Z,34.42
2022-09-11T01:39:42.423Z,30.95
2022-09-11T01:42:16.833Z,33.88
2022-09-11T01:44:51.488Z,34.08
2022-09-11T01:47:20.768Z,32.63
2022-09-11T01:50:05.176Z,34.28
2022-09-11T01:52:53.387Z,33.75
2022-09-11T01:55:36.516Z,34.35
2022-09-11T01:58:08.203Z,31.98
2022-09-11T02:00:41.208Z,31.10
2022-09-11T02:03:17.435Z,28.83
2022-09-11T02:05:51.132Z,30.45
2022-09-11T02:08:45.197Z,27.55
2022-09-11T02:11:14.286Z,31.90
2022-09-11T02:14:10.356Z,32.78
2022-09-11T02:16:45.377Z,28.65
2022-09-11T02:19:16.569Z,28.38
2022-09-11T02:21:45.172Z,28.63
2022-09-11T02:24:12.041Z,26.48
2022-09-11T02:26:42.920Z,25.98
2022-09-11T02:29:11.675Z,24.98
2022-09-11T02:31:39.996Z,28.13
2022-09-11T02:34:06.939Z,22.45
2022-09-11T02:36:40.536Z,29.33
2022-09-11T02:39:16.368Z,22.98
2022-09-11T02:41:43.874Z,22.70
2022-09-11T02:44:36.483Z,22.80
2022-09-11T02:47:24.978Z,18.63
2022-09-11T02:50:22.017Z,20.48
2022-09-11T02:52:52.215Z,23.42
2022-09-11T02:55:48.805Z,20.63
2022-09-11T02:58:33.111Z,22.63
2022-09-11T03:01:01.695Z,22.25
2022-09-11T03:03:41.345Z,22.10
2022-09-11T03:06:21.483Z,19.27
2022-09-11T03:08:48.702Z,23.20
2022-09-11T03:11:20.171Z,24.42
2022-09-11T03:13:49.097Z,22.08
2022-09-11T03:16:17.051Z,22.92
2022-09-11T03:18:44.608Z,23.02
2022-09-11T03:21:11.799Z,23.52
2022-09-11T03:23:38.736Z,22.85
2022-09-11T03:26:05.663Z,22.90
2022-09-11T03:28:34.106Z,21.88
2022-09-11T03:31:07.819Z,24.92
2022-09-11T03:33:35.112Z,21.85
2022-09-11T03:36:02.248Z,21.48
2022-09-11T03:38:29.184Z,24.05
2022-09-11T03:40:56.012Z,23.75
2022-09-11T03:43:23.346Z,22.52
2022-09-11T03:45:54.191Z,22.58
2022-09-11T03:48:21.322Z,21.25
2022-09-11T03:50:49.172Z,21.85
2022-09-11T03:53:16.012Z,21.00
2022-09-11T03:55:44.912Z,22.88
2022-09-11T03:58:12.388Z,20.35
2022-09-11T04:00:46.578Z,24.75
2022-09-11T04:03:15.895Z,21.88
2022-09-11T04:05:55.951Z,21.38
2022-09-11T04:08:22.884Z,23.17
2022-09-11T04:10:49.868Z,24.63
2022-09-11T04:13:16.687Z,24.55
2022-09-11T04:15:43.530Z,22.50
2022-09-11T04:18:10.392Z,21.63
2022-09-11T04:20:41.352Z,20.95
2022-09-11T04:23:09.131Z,23.55
2022-09-11T04:25:36.093Z,21.75
2022-09-11T04:28:05.010Z,20.63
2022-09-11T04:30:34.622Z,21.58
2022-09-11T04:33:02.367Z,19.52
2022-09-11T04:35:29.945Z,21.50
2022-09-11T04:37:58.591Z,23.23
2022-09-11T04:40:26.619Z,23.50
2022-09-11T04:42:53.592Z,24.60
2022-09-11T04:45:20.392Z,22.65
2022-09-11T04:47:47.597Z,23.77
2022-09-11T04:50:14.553Z,24.92
2022-09-11T04:52:45.180Z,24.60
2022-09-11T04:55:11.979Z,21.70
2022-09-11T04:57:38.738Z,21.85
2022-09-11T05:00:06.927Z,22.52
2022-09-11T05:02:37.498Z,22.73
2022-09-11T05:05:05.340Z,22.58
2022-09-11T05:07:32.191Z,21.50
2022-09-11T05:10:00.853Z,23.88
2022-09-11T05:12:28.675Z,21.88
2022-09-11T05:14:55.546Z,22.20
2022-09-11T05:17:22.756Z,24.35
2022-09-11T05:19:49.738Z,21.05
2022-09-11T05:22:16.795Z,20.45
2022-09-11T05:24:49.729Z,19.60
2022-09-11T05:27:17.184Z,17.90
2022-09-11T05:29:44.726Z,20.08
2022-09-11T05:32:14.011Z,17.15
2022-09-11T05:34:41.621Z,19.67
2022-09-11T05:37:11.065Z,19.90
2022-09-11T05:39:43.030Z,17.58
2022-09-11T05:42:11.836Z,19.95
2022-09-11T05:44:41.927Z,20.38
2022-09-11T05:47:08.858Z,21.75
2022-09-11T05:49:35.783Z,21.40
2022-09-11T05:52:03.413Z,18.25
2022-09-11T05:54:32.429Z,16.65
2022-09-11T05:57:06.912Z,16.88
2022-09-11T05:59:36.656Z,19.60
2022-09-11T06:02:04.662Z,16.35
2022-09-11T06:04:40.383Z,15.38
2022-09-11T06:07:08.440Z,17.88
2022-09-11T06:09:37.072Z,16.23
2022-09-11T06:12:04.822Z,15.20
2022-09-11T06:14:32.118Z,16.95
2022-09-11T06:17:01.681Z,15.70
2022-09-11T06:19:33.843Z,16.63
2022-09-11T06:22:03.035Z,16.38
2022-09-11T06:24:34.324Z,17.73
2022-09-11T06:27:01.300Z,16.52
2022-09-11T06:29:32.354Z,16.35
2022-09-11T06:32:00.896Z,17.60
2022-09-11T06:34:31.775Z,16.08
2022-09-11T06:39:28.782Z,15.48
2022-09-11T06:41:57.880Z,17.30
2022-09-11T06:44:28.607Z,15.18
2022-09-11T06:46:59.448Z,15.10
2022-09-11T06:49:26.881Z,14.88
2022-09-11T06:52:13.468Z,16.27
2022-09-11T06:54:47.325Z,14.23
2022-09-11T06:57:16.070Z,13.60
2022-09-11T06:59:43.147Z,14.13
2022-09-11T07:02:10.625Z,12.70
2022-09-11T07:04:38.262Z,12.55
2022-09-11T07:07:05.534Z,13.02
2022-09-11T07:09:33.334Z,13.90
2022-09-11T07:12:01.243Z,13.30
2022-09-11T07:14:30.553Z,14.40
2022-09-11T07:17:07.360Z,14.95
2022-09-11T07:19:38.673Z,13.57
2022-09-11T07:22:05.876Z,12.73
2022-09-11T07:24:34.821Z,13.85
2022-09-11T07:27:01.837Z,13.65
2022-09-11T07:29:32.729Z,12.02
2022-09-11T07:31:59.927Z,11.93
2022-09-11T07:34:28.709Z,12.15
2022-09-11T07:36:58.545Z,13.15
2022-09-11T07:39:28.977Z,11.02
2022-09-11T07:42:01.289Z,9.98
2022-09-11T07:44:32.340Z,10.65
2022-09-11T07:47:04.259Z,10.05
2022-09-11T07:49:36.408Z,11.15
2022-09-11T07:52:04.425Z,9.98
2022-09-11T07:54:51.275Z,9.05
2022-09-11T07:57:21.995Z,8.95
2022-09-11T07:59:49.895Z,8.45
2022-09-11T08:02:18.178Z,7.90
2022-09-11T08:04:45.220Z,8.10
2022-09-11T08:07:12.258Z,7.53
2022-09-11T08:09:39.099Z,7.63
2022-09-11T08:12:06.903Z,8.70
2022-09-11T08:14:36.991Z,8.75
2022-09-11T08:17:24.283Z,8.35
2022-09-11T08:19:52.349Z,7.85
2022-09-11T08:22:19.541Z,8.43
2022-09-11T08:24:48.508Z,7.88
2022-09-11T08:27:18.387Z,7.78
2022-09-11T08:29:46.139Z,7.10
2022-09-11T08:32:13.620Z,7.72
2022-09-11T08:34:40.880Z,7.90
2022-09-11T08:37:08.104Z,7.07
2022-09-11T08:39:35.892Z,6.80
2022-09-11T08:42:16.107Z,6.80
2022-09-11T08:44:56.548Z,5.90
2022-09-11T08:47:38.508Z,6.35
2022-09-11T08:50:22.052Z,5.95
2022-09-11T08:52:50.121Z,5.88
2022-09-11T08:55:35.452Z,4.70
2022-09-11T08:58:16.095Z,4.43
2022-09-11T09:01:04.422Z,5.05
2022-09-11T09:03:53.009Z,4.18
2022-09-11T09:06:25.918Z,3.85
2022-09-11T09:09:22.041Z,4.38
2022-09-11T09:12:16.055Z,3.78
2022-09-11T09:14:54.869Z,3.40
2022-09-11T09:17:53.867Z,3.10
2022-09-11T09:20:42.487Z,2.70
2022-09-11T09:23:24.646Z,3.05
2022-09-11T09:25:54.303Z,2.28
2022-09-11T09:28:21.140Z,2.60
2022-09-11T09:30:57.879Z,2.72
2022-09-11T09:33:37.250Z,2.97
2022-09-11T09:36:26.186Z,2.40
2022-09-11T09:38:54.096Z,2.72
2022-09-11T09:41:39.164Z,3.33
2022-09-11T09:44:27.972Z,3.58
2022-09-11T09:46:56.135Z,3.00
2022-09-11T09:49:27.642Z,2.53
2022-09-11T09:52:02.218Z,2.78
2022-09-11T09:54:34.472Z,2.78
2022-09-11T09:57:05.021Z,2.60
2022-09-11T09:59:43.495Z,2.35
2022-09-11T10:02:10.284Z,2.60
2022-09-11T10:04:37.282Z,2.90
2022-09-11T10:07:14.073Z,2.40
2022-09-11T10:09:50.218Z,2.50
2022-09-11T10:12:26.466Z,2.00
2022-09-11T10:15:01.367Z,1.80
2022-09-11T10:17:33.376Z,1.80
2022-09-11T10:20:18.561Z,1.50
2022-09-11T10:22:49.475Z,1.40
2022-09-11T10:25:16.331Z,1.67
2022-09-11T10:28:04.454Z,1.50
2022-09-11T10:30:33.827Z,1.60
2022-09-11T10:33:04.284Z,1.30
2022-09-11T10:35:33.585Z,1.45
2022-09-11T10:38:17.769Z,1.35
2022-09-11T10:41:08.827Z,1.30
2022-09-11T10:43:38.377Z,1.33
2022-09-11T10:46:28.699Z,1.27
2022-09-11T10:49:15.810Z,1.38
2022-09-11T10:51:57.142Z,1.20
2022-09-11T10:54:39.874Z,1.40
2022-09-11T10:57:21.565Z,1.20
2022-09-11T11:00:11.675Z,1.25
2022-09-11T11:02:42.665Z,1.27
2022-09-11T11:05:19.911Z,1.50
2022-09-11T11:08:06.253Z,1.48
2022-09-11T11:10:39.245Z,2.03
2022-09-11T11:13:14.595Z,1.70
2022-09-11T11:16:03.968Z,1.70
2022-09-11T11:19:02.663Z,1.80
2022-09-11T11:22:01.894Z,1.70
2022-09-11T11:24:28.647Z,1.58
2022-09-11T11:27:32.866Z,1.50
2022-09-11T11:30:15.942Z,1.50
2022-09-11T11:32:48.724Z,1.60
2022-09-11T11:37:50.104Z,1.48
2022-09-11T11:40:27.305Z,1.30
2022-09-11T11:43:02.867Z,1.40
2022-09-11T11:45:38.940Z,1.33
2022-09-11T11:48:25.395Z,1.52
2022-09-11T11:51:00.431Z,1.38
2022-09-11T11:53:42.166Z,1.50
2022-09-11T11:56:14.986Z,1.50
2022-09-11T12:01:37.098Z,1.25
2022-09-11T12:04:45.116Z,1.20
2022-09-11T12:07:33.071Z,1.40
2022-09-11T12:10:01.629Z,1.05
2022-09-11T12:12:43.015Z,1.25
2022-09-11T12:15:19.860Z,1.40
2022-09-11T12:17:49.979Z,1.10
2022-09-11T12:20:34.562Z,1.00
2022-09-11T12:23:01.952Z,1.02
2022-09-11T12:25:28.670Z,0.90
2022-09-11T12:28:10.782Z,0.85
2022-09-11T12:31:05.122Z,1.00
2022-09-11T12:33:41.129Z,1.10
2022-09-11T12:36:29.677Z,1.15
2022-09-11T12:39:05.346Z,1.02
2022-09-11T12:41:36.380Z,1.30
2022-09-11T12:44:04.798Z,1.00
2022-09-11T12:46:31.679Z,0.98
2022-09-11T12:49:21.037Z,1.00
2022-09-11T12:51:55.115Z,1.20
2022-09-11T12:54:33.515Z,1.02
2022-09-11T12:57:07.427Z,0.88
2022-09-11T12:59:43.609Z,0.90
2022-09-11T13:02:34.363Z,0.80
2022-09-11T13:05:02.754Z,0.93
2022-09-11T13:07:35.507Z,0.85
2022-09-11T13:12:50.164Z,0.70
2022-09-11T13:15:43.795Z,0.70
2022-09-11T13:18:32.136Z,0.77
2022-09-11T13:21:04.917Z,0.70
2022-09-11T13:26:01.083Z,0.80
2022-09-11T13:28:31.705Z,0.73
2022-09-11T13:31:04.750Z,0.82
2022-09-11T13:33:32.576Z,0.88
2022-09-11T13:36:02.696Z,0.80
2022-09-11T13:38:31.350Z,0.90
2022-09-11T13:41:06.248Z,0.93
2022-09-11T13:43:42.411Z,0.75
2022-09-11T13:46:24.318Z,1.00
2022-09-11T13:48:55.861Z,0.90
2022-09-11T13:51:27.304Z,0.75
2022-09-11T13:54:28.819Z,0.90
2022-09-11T13:56:55.543Z,0.90
2022-09-11T13:59:44.565Z,0.65
2022-09-11T14:02:40.672Z,0.70
2022-09-11T14:05:16.564Z,0.60
2022-09-11T14:08:07.502Z,0.80
2022-09-11T14:10:43.470Z,0.70
2022-09-11T14:13:20.035Z,0.63
2022-09-11T14:16:11.413Z,0.68
2022-09-11T14:18:46.184Z,0.70
2022-09-11T14:21:16.201Z,0.80
2022-09-11T14:23:51.703Z,0.80
2022-09-11T14:26:21.147Z,0.90
2022-09-11T14:29:00.336Z,0.80
2022-09-11T14:31:37.132Z,0.70
2022-09-11T14:34:17.859Z,0.70
2022-09-11T14:36:46.774Z,0.88
2022-09-11T14:39:39.636Z,0.80
2022-09-11T14:42:09.069Z,0.68
2022-09-11T14:44:39.459Z,0.68
2022-09-11T14:47:13.745Z,0.80
2022-09-11T14:49:40.595Z,0.80
2022-09-11T14:52:10.014Z,0.80
2022-09-11T14:54:37.478Z,0.77
2022-09-11T14:57:20.792Z,0.82
2022-09-11T14:59:47.971Z,1.00
2022-09-11T15:02:21.352Z,1.15
2022-09-11T15:04:49.320Z,0.73
2022-09-11T15:07:17.408Z,0.80
2022-09-11T15:09:44.240Z,0.95
2022-09-11T15:12:13.142Z,1.23
2022-09-11T15:14:58.490Z,1.10
2022-09-11T15:17:30.476Z,0.95
2022-09-11T15:20:00.435Z,0.70
2022-09-11T15:22:28.086Z,1.10
2022-09-11T15:24:56.553Z,0.80
2022-09-11T15:27:25.198Z,0.80
2022-09-11T15:29:52.354Z,0.90
2022-09-11T15:32:20.518Z,1.10
2022-09-11T15:34:47.759Z,0.90
2022-09-11T15:37:16.875Z,1.10
2022-09-11T15:39:44.204Z,1.10
2022-09-11T15:42:11.611Z,1.00
2022-09-11T15:44:38.519Z,0.75
2022-09-11T15:47:06.195Z,0.85
2022-09-11T15:49:39.232Z,0.90
2022-09-11T15:52:06.011Z,1.08
2022-09-11T15:54:32.826Z,1.15
2022-09-11T15:56:59.821Z,1.50
2022-09-11T15:59:26.680Z,0.98
2022-09-11T16:01:53.859Z,0.98
2022-09-11T16:04:22.977Z,0.80
2022-09-11T16:06:50.387Z,1.00
2022-09-11T16:09:29.301Z,0.80
2022-09-11T16:11:56.394Z,1.00
2022-09-11T16:14:28.533Z,0.88
2022-09-11T16:16:55.970Z,1.17
2022-09-11T16:19:27.817Z,0.95
2022-09-11T16:21:56.970Z,1.07
2022-09-11T16:24:25.655Z,1.00
2022-09-11T16:26:56.040Z,0.90
2022-09-11T16:29:25.605Z,1.00
2022-09-11T16:31:52.789Z,0.82
2022-09-11T16:34:19.581Z,1.02
2022-09-11T16:36:46.818Z,0.98
2022-09-11T16:39:16.559Z,0.70
2022-09-11T16:41:43.545Z,1.00
2022-09-11T16:44:14.596Z,0.80
2022-09-11T16:46:42.364Z,1.00
2022-09-11T16:49:10.313Z,0.90
2022-09-11T16:51:37.265Z,0.80
2022-09-11T16:54:04.339Z,0.90
2022-09-11T16:56:31.376Z,0.90
2022-09-11T16:58:58.749Z,0.70
2022-09-11T17:01:27.463Z,1.00
2022-09-11T17:03:57.232Z,0.80
2022-09-11T17:06:29.998Z,1.00
2022-09-11T17:08:59.849Z,1.00
2022-09-11T17:11:28.464Z,0.70
2022-09-11T17:13:55.506Z,0.63
2022-09-11T17:16:26.001Z,1.02
2022-09-11T17:18:56.457Z,0.90
2022-09-11T17:21:24.666Z,0.75
2022-09-11T17:23:55.476Z,0.70
2022-09-11T17:26:23.237Z,0.90
2022-09-11T17:28:51.820Z,0.60
2022-09-11T17:31:19.721Z,0.70
2022-09-11T17:33:48.315Z,0.85
2022-09-11T17:36:18.531Z,0.90
2022-09-11T17:38:48.278Z,1.00
2022-09-11T17:41:16.630Z,0.60
2022-09-11T17:43:43.619Z,1.02
2022-09-11T17:46:14.938Z,1.00
2022-09-11T17:48:43.045Z,1.13
2022-09-11T17:51:27.826Z,0.90
2022-09-11T17:53:59.064Z,1.00
2022-09-11T17:56:30.922Z,0.73
2022-09-11T17:58:59.771Z,1.00
2022-09-11T18:01:28.775Z,0.80
2022-09-11T18:03:58.283Z,1.00
2022-09-11T18:06:29.297Z,1.08
2022-09-11T18:09:02.174Z,1.00
2022-09-11T18:12:52.371Z,1.23
2022-09-11T18:16:13.838Z,0.88
2022-09-11T18:18:43.430Z,1.20
2022-09-11T18:21:11.653Z,1.15
2022-09-11T18:23:40.542Z,1.17
2022-09-11T18:26:10.329Z,1.30
2022-09-11T18:28:39.771Z,1.00
2022-09-11T18:31:07.638Z,1.10
2022-09-11T18:33:34.820Z,1.00
2022-09-11T18:36:08.488Z,1.10
2022-09-11T18:38:35.969Z,1.20
2022-09-11T18:41:03.241Z,1.48
2022-09-11T18:43:30.055Z,1.50
2022-09-11T18:46:01.273Z,1.30
2022-09-11T18:48:28.363Z,1.30
2022-09-11T18:50:55.417Z,1.25
2022-09-11T18:53:22.346Z,1.00
2022-09-11T18:56:00.471Z,1.20
2022-09-11T18:58:34.997Z,1.20
2022-09-11T19:01:11.557Z,1.00
2022-09-11T19:03:40.261Z,0.88
2022-09-11T19:06:12.708Z,1.20
2022-09-11T19:08:41.202Z,1.10
2022-09-11T19:11:15.088Z,1.30
2022-09-11T19:13:43.444Z,1.13
2022-09-11T19:16:10.618Z,1.10
2022-09-11T19:18:39.093Z,1.20
2022-09-11T19:21:12.540Z,1.10
2022-09-11T19:23:42.121Z,1.15
2022-09-11T19:26:21.968Z,1.00
2022-09-11T19:28:50.416Z,1.40
2022-09-11T19:31:21.391Z,1.40
2022-09-11T19:33:51.277Z,1.40
2022-09-11T19:36:22.819Z,1.85
2022-09-11T19:38:51.787Z,1.30
2022-09-11T19:41:23.272Z,1.63
2022-09-11T19:43:50.797Z,1.48
2022-09-11T19:46:26.390Z,1.88
2022-09-11T19:48:56.954Z,1.52
2022-09-11T19:51:27.322Z,1.92
2022-09-11T19:53:56.521Z,2.60
2022-09-11T19:56:24.766Z,3.00
2022-09-11T19:58:52.068Z,3.70
2022-09-11T20:01:25.346Z,3.65
2022-09-11T20:03:54.367Z,4.22
2022-09-11T20:06:24.792Z,3.50
2022-09-11T20:09:07.651Z,2.95
2022-09-11T20:14:02.190Z,3.03
2022-09-11T20:16:29.291Z,4.30
2022-09-11T20:19:00.481Z,3.58
2022-09-11T20:21:27.703Z,4.22
2022-09-11T20:23:55.631Z,3.97
2022-09-11T20:26:25.601Z,3.95
2022-09-11T20:28:54.683Z,3.60
2022-09-11T20:31:28.287Z,3.22
2022-09-11T20:33:55.791Z,2.92
2022-09-11T20:36:23.718Z,2.70
2022-09-11T20:38:52.437Z,2.63
2022-09-11T20:41:20.970Z,2.05
2022-09-11T20:43:47.998Z,2.05
2022-09-11T20:46:16.159Z,2.50
2022-09-11T20:48:43.173Z,2.28
2022-09-11T20:51:12.239Z,1.88
2022-09-11T20:53:41.785Z,1.60
2022-09-11T20:56:11.213Z,2.13
2022-09-11T20:58:38.897Z,1.40
2022-09-11T21:01:07.419Z,1.63
2022-09-11T21:03:34.646Z,2.05
2022-09-11T21:06:09.801Z,2.00
2022-09-11T21:08:36.936Z,1.90
2022-09-11T21:11:05.167Z,1.83
2022-09-11T21:13:37.340Z,2.20
2022-09-11T21:16:12.650Z,3.33
2022-09-11T21:18:44.211Z,4.25
2022-09-11T21:21:11.103Z,3.85
2022-09-11T21:23:37.937Z,4.10
2022-09-11T21:26:09.606Z,3.80
2022-09-11T21:28:36.743Z,3.10
2022-09-11T21:31:04.350Z,2.90
2022-09-11T21:33:33.513Z,2.33
2022-09-11T21:36:00.633Z,2.40
2022-09-11T21:38:29.574Z,1.98
2022-09-11T21:40:59.987Z,3.03
2022-09-11T21:43:27.449Z,2.63
2022-09-11T21:45:54.609Z,3.38
2022-09-11T21:48:21.594Z,3.22
2022-09-11T21:50:49.184Z,3.20
2022-09-11T21:53:20.515Z,2.92
2022-09-11T21:55:51.945Z,2.60
2022-09-11T21:58:21.048Z,2.40
2022-09-11T22:00:48.973Z,2.28
2022-09-11T22:03:18.359Z,2.15
2022-09-11T22:05:49.317Z,2.17
2022-09-11T22:08:19.354Z,1.65
2022-09-11T22:10:49.387Z,2.25
2022-09-11T22:13:18.422Z,2.20
2022-09-11T22:15:48.276Z,2.10
2022-09-11T22:18:16.354Z,1.90
2022-09-11T22:20:43.414Z,2.08
2022-09-11T22:23:16.383Z,2.30
2022-09-11T22:25:44.712Z,1.90
2022-09-11T22:28:12.558Z,1.75
2022-09-11T22:30:44.335Z,1.90
2022-09-11T22:33:11.363Z,1.50
2022-09-11T22:35:38.377Z,2.00
2022-09-11T22:38:05.284Z,2.50
2022-09-11T22:40:32.438Z,2.05
2022-09-11T22:42:59.611Z,2.13
2022-09-11T22:45:26.800Z,2.15
2022-09-11T22:47:53.676Z,2.20
2022-09-11T22:50:20.467Z,2.15
2022-09-11T22:52:47.267Z,2.20
2022-09-11T22:55:17.625Z,1.88
2022-09-11T22:57:44.365Z,2.53
2022-09-11T23:00:12.886Z,1.90
2022-09-11T23:02:39.676Z,2.30
2022-09-11T23:05:25.976Z,2.35
2022-09-11T23:07:53.936Z,2.47
2022-09-11T23:10:21.887Z,2.15
2022-09-11T23:12:48.846Z,2.30
2022-09-11T23:15:17.474Z,2.30
2022-09-11T23:17:44.518Z,2.10
2022-09-11T23:20:11.710Z,2.78
2022-09-11T23:22:38.605Z,2.45
2022-09-11T23:25:06.664Z,2.70
2022-09-11T23:27:33.423Z,2.65
2022-09-11T23:30:00.372Z,2.65
2022-09-11T23:32:27.187Z,3.10
2022-09-11T23:34:54.193Z,2.75
2022-09-11T23:37:21.215Z,2.50
2022-09-11T23:39:48.152Z,2.58
2022-09-11T23:42:15.284Z,2.72
2022-09-11T23:44:42.029Z,2.65
2022-09-11T23:47:09.111Z,2.90
2022-09-11T23:49:36.608Z,2.55
2022-09-11T23:52:04.670Z,3.15
2022-09-11T23:54:31.622Z,3.55
2022-09-11T23:56:59.052Z,3.83
2022-09-11T23:59:26.232Z,3.15
